Dvinskoy Bereznik, Russia
Current Conditions -  °F | °C
As of 12:00 AM on Wednesday 28 Jan 2015 (Local Time) from UUYY Reporting Station
Snow Showers Snow Showers  
Wind Chill:   Ceiling: 6600
Heat Index: 12°   Visibility: 4mi
Dew Point:   Wind: 9mph
Humidity: 79%   Direction: 200°SSW
Pressure: 29.91"   Gusts: 16mph
Location:  61.7°N, 45.53°E
Report Text: UUYY 272100Z 20004G07MPS 7000 -SHSN SCT013CB OVC066 M11/M14 Q1013 TEMPO 2000 SHSN 19450238 RMK QFE751/1001
Loading
Personal Weather Stations






























Interactive Weather Map New forecast layout! Learn more

10-Day Weather Forecast

Advertisements
Track Severe Weather on mobile